Old Milo, Arkansas
Current Conditions -  °F | °C
As of 10:15 AM on Thursday 27 Nov 2014 (Local Time) from KBQP Reporting Station
Clear Clear  
Wind Chill: 43°   Ceiling: Unl
Heat Index: 46°   Visibility: 10mi
Dew Point: 29°   Wind: 7mph
Humidity: 51%   Direction: 310°NW
Pressure: 30.55"   Gusts: NA
Location:  33.1762°N, 91.7595°W
Report Text: KBQP 271615Z AUTO 31006KT 10SM CLR 08/M02 A3055 RMK AO2 T00791018
Loading
Personal Weather Stations






























Interactive Weather Map New forecast layout! Learn more

10-Day Weather Forecast

Advertisements
Track Severe Weather on mobile